createdAt,value
2018-12-15T00:00:13.636Z,1012.0
2018-12-15T00:01:15.055Z,1012.0
2018-12-15T00:02:16.501Z,1012.0
2018-12-15T00:03:17.930Z,1012.0
2018-12-15T00:04:19.459Z,1012.0
2018-12-15T00:05:21.029Z,1012.0
2018-12-15T00:06:22.451Z,1012.0
2018-12-15T00:07:23.911Z,1012.0
2018-12-15T00:08:25.345Z,1011.9
2018-12-15T00:09:26.823Z,1011.9
2018-12-15T00:10:28.272Z,1011.9
2018-12-15T00:11:29.877Z,1012.0
2018-12-15T00:12:31.393Z,1012.0
2018-12-15T00:13:32.890Z,1011.9
2018-12-15T00:14:34.378Z,1011.9
2018-12-15T00:15:37.689Z,1011.9
2018-12-15T00:16:39.147Z,1011.9
2018-12-15T00:17:40.549Z,1011.9
2018-12-15T00:18:41.950Z,1011.9
2018-12-15T00:19:43.384Z,1011.9
2018-12-15T00:20:44.922Z,1011.9
2018-12-15T00:21:46.339Z,1011.9
2018-12-15T00:22:47.806Z,1012.0
2018-12-15T00:23:49.257Z,1011.9
2018-12-15T00:24:50.713Z,1011.9
2018-12-15T00:25:52.222Z,1011.9
2018-12-15T00:26:53.696Z,1011.9
2018-12-15T00:27:55.148Z,1012.0
2018-12-15T00:28:56.560Z,1012.0
2018-12-15T00:29:58.024Z,1011.9
2018-12-15T00:30:59.487Z,1012.0
2018-12-15T00:32:00.898Z,1012.0
2018-12-15T00:33:02.461Z,1012.0
2018-12-15T00:34:03.927Z,1012.0
2018-12-15T00:35:05.391Z,1012.0
2018-12-15T00:36:07.522Z,1012.0
2018-12-15T00:37:08.942Z,1012.0
2018-12-15T00:38:10.484Z,1012.0
2018-12-15T00:39:11.912Z,1012.0
2018-12-15T00:40:13.332Z,1012.0
2018-12-15T00:41:14.894Z,1012.0
2018-12-15T00:42:16.405Z,1012.0
2018-12-15T00:43:17.881Z,1012.0
2018-12-15T00:44:19.289Z,1012.0
2018-12-15T00:45:20.725Z,1012.0
2018-12-15T00:46:22.203Z,1012.1
2018-12-15T00:47:23.665Z,1012.1
2018-12-15T00:48:25.134Z,1012.1
2018-12-15T00:49:26.650Z,1012.1
2018-12-15T00:50:28.081Z,1012.1
2018-12-15T00:51:29.516Z,1012.1
2018-12-15T00:52:30.922Z,1012.1
2018-12-15T00:53:32.312Z,1012.1
2018-12-15T00:54:33.702Z,1012.2
2018-12-15T00:55:35.114Z,1012.2
2018-12-15T00:56:36.550Z,1012.2
2018-12-15T00:57:38.010Z,1012.2
2018-12-15T00:58:39.428Z,1012.2
2018-12-15T00:59:40.884Z,1012.3
2018-12-15T01:00:42.358Z,1012.3
2018-12-15T01:01:43.764Z,1012.3
2018-12-15T01:02:45.227Z,1012.3
2018-12-15T01:03:46.618Z,1012.4
2018-12-15T01:04:48.055Z,1012.4
2018-12-15T01:05:49.592Z,1012.4
2018-12-15T01:06:51.045Z,1012.4
2018-12-15T01:07:52.433Z,1012.4
2018-12-15T01:08:53.873Z,1012.5
2018-12-15T01:09:55.380Z,1012.4
2018-12-15T01:10:56.835Z,1012.4
2018-12-15T01:11:58.441Z,1012.4
2018-12-15T01:12:59.932Z,1012.5
2018-12-15T01:14:01.367Z,1012.4
2018-12-15T01:15:02.834Z,1012.5
2018-12-15T01:16:04.262Z,1012.5
2018-12-15T01:17:05.719Z,1012.4
2018-12-15T01:18:07.148Z,1012.5
2018-12-15T01:19:08.682Z,1012.5
2018-12-15T01:20:10.119Z,1012.5
2018-12-15T01:21:11.630Z,1012.6
2018-12-15T01:22:13.322Z,1012.6
2018-12-15T01:23:14.697Z,1012.5
2018-12-15T01:24:16.119Z,1012.5
2018-12-15T01:25:18.633Z,1012.5
2018-12-15T01:26:20.026Z,1012.5
2018-12-15T01:27:21.441Z,1012.6
2018-12-15T01:28:22.914Z,1012.7
2018-12-15T01:29:24.329Z,1012.7
2018-12-15T01:30:25.760Z,1012.6
2018-12-15T01:31:27.142Z,1012.7
2018-12-15T01:32:28.585Z,1012.6
2018-12-15T01:33:30.009Z,1012.6
2018-12-15T01:34:31.458Z,1012.6
2018-12-15T01:35:32.941Z,1012.6
2018-12-15T01:36:34.326Z,1012.7
2018-12-15T01:37:35.739Z,1012.7
2018-12-15T01:38:37.197Z,1012.7
2018-12-15T01:39:38.545Z,1012.7
2018-12-15T01:40:39.958Z,1012.7
2018-12-15T01:41:41.333Z,1012.7
2018-12-15T01:42:42.725Z,1012.7
2018-12-15T01:43:44.128Z,1012.7
2018-12-15T01:44:45.523Z,1012.7
2018-12-15T01:45:46.898Z,1012.7
2018-12-15T01:46:48.278Z,1012.7
2018-12-15T01:47:49.660Z,1012.7
2018-12-15T01:48:51.038Z,1012.7
2018-12-15T01:49:52.457Z,1012.7
2018-12-15T01:50:53.833Z,1012.7
2018-12-15T01:51:55.231Z,1012.7
2018-12-15T01:52:56.613Z,1012.7
2018-12-15T01:53:57.990Z,1012.7
2018-12-15T01:54:59.370Z,1012.7
2018-12-15T01:56:00.764Z,1012.8
2018-12-15T01:57:02.164Z,1012.8
2018-12-15T01:58:03.643Z,1012.8
2018-12-15T01:59:05.059Z,1012.8
2018-12-15T02:00:06.450Z,1012.8
2018-12-15T02:01:07.835Z,1012.7
2018-12-15T02:02:09.210Z,1012.8
2018-12-15T02:03:10.594Z,1012.8
2018-12-15T02:04:11.986Z,1012.8
2018-12-15T02:05:13.415Z,1012.8
2018-12-15T02:06:14.794Z,1012.8
2018-12-15T02:07:16.179Z,1012.7
2018-12-15T02:08:17.568Z,1012.7
2018-12-15T02:09:18.981Z,1012.8
2018-12-15T02:10:20.359Z,1012.7
2018-12-15T02:11:21.760Z,1012.8
2018-12-15T02:12:23.180Z,1012.7
2018-12-15T02:13:24.583Z,1012.7
2018-12-15T02:14:25.971Z,1012.7
2018-12-15T02:15:27.333Z,1012.7
2018-12-15T02:16:28.741Z,1012.7
2018-12-15T02:17:33.545Z,1012.6
2018-12-15T02:18:31.499Z,1012.7
2018-12-15T02:19:32.878Z,1012.6
2018-12-15T02:20:34.275Z,1012.6
2018-12-15T02:21:35.656Z,1012.6
2018-12-15T02:22:37.038Z,1012.6
2018-12-15T02:23:38.448Z,1012.6
2018-12-15T02:24:39.852Z,1012.6
2018-12-15T02:25:41.267Z,1012.6
2018-12-15T02:26:42.664Z,1012.6
2018-12-15T02:27:44.047Z,1012.6
2018-12-15T02:28:45.440Z,1012.6
2018-12-15T02:29:46.819Z,1012.6
2018-12-15T02:30:48.195Z,1012.6
2018-12-15T02:31:49.602Z,1012.6
2018-12-15T02:32:50.988Z,1012.6
2018-12-15T02:33:52.374Z,1012.5
2018-12-15T02:34:53.771Z,1012.5
2018-12-15T02:35:55.141Z,1012.5
2018-12-15T02:36:56.554Z,1012.5
2018-12-15T02:37:57.943Z,1012.5
2018-12-15T02:38:59.318Z,1012.5
2018-12-15T02:40:00.765Z,1012.5
2018-12-15T02:41:02.151Z,1012.4
2018-12-15T02:42:03.536Z,1012.5
2018-12-15T02:43:04.957Z,1012.5
2018-12-15T02:44:06.337Z,1012.5
2018-12-15T02:45:07.727Z,1012.5
2018-12-15T02:46:09.134Z,1012.5
2018-12-15T02:47:10.531Z,1012.5
2018-12-15T02:48:12.017Z,1012.4
2018-12-15T02:49:13.397Z,1012.4
2018-12-15T02:50:14.719Z,1012.4
2018-12-15T02:51:16.116Z,1012.4
2018-12-15T02:52:17.542Z,1012.4
2018-12-15T02:53:18.910Z,1012.4
2018-12-15T02:54:20.373Z,1012.4
2018-12-15T02:55:21.751Z,1012.4
2018-12-15T02:56:23.125Z,1012.4
2018-12-15T02:57:24.526Z,1012.4
2018-12-15T02:58:25.926Z,1012.5
2018-12-15T02:59:27.332Z,1012.4
2018-12-15T03:00:28.717Z,1012.4
2018-12-15T03:01:30.125Z,1012.4
2018-12-15T03:02:31.506Z,1012.4
2018-12-15T03:03:32.904Z,1012.4
2018-12-15T03:04:34.265Z,1012.3
2018-12-15T03:05:35.665Z,1012.3
2018-12-15T03:06:37.056Z,1012.3
2018-12-15T03:07:38.479Z,1012.3
2018-12-15T03:08:39.870Z,1012.3
2018-12-15T03:09:41.299Z,1012.3
2018-12-15T03:10:42.689Z,1012.3
2018-12-15T03:11:44.098Z,1012.3
2018-12-15T03:12:45.521Z,1012.3
2018-12-15T03:13:46.910Z,1012.3
2018-12-15T03:14:48.292Z,1012.3
2018-12-15T03:15:49.692Z,1012.3
2018-12-15T03:16:51.083Z,1012.3
2018-12-15T03:17:52.467Z,1012.3
2018-12-15T03:18:53.854Z,1012.3
2018-12-15T03:19:55.238Z,1012.3
2018-12-15T03:20:56.631Z,1012.2
2018-12-15T03:21:58.028Z,1012.2
2018-12-15T03:22:59.414Z,1012.3
2018-12-15T03:24:00.799Z,1012.2
2018-12-15T03:25:02.190Z,1012.2
2018-12-15T03:26:03.588Z,1012.2
2018-12-15T03:27:04.981Z,1012.2
2018-12-15T03:28:06.373Z,1012.2
2018-12-15T03:29:07.752Z,1012.2
2018-12-15T03:30:09.149Z,1012.2
2018-12-15T03:31:10.541Z,1012.2
2018-12-15T03:32:11.932Z,1012.3
2018-12-15T03:33:13.329Z,1012.2
2018-12-15T03:34:14.709Z,1012.2
2018-12-15T03:35:16.088Z,1012.2
2018-12-15T03:36:17.473Z,1012.2
2018-12-15T03:37:18.865Z,1012.2
2018-12-15T03:38:20.255Z,1012.2
2018-12-15T03:39:21.695Z,1012.2
2018-12-15T03:40:23.090Z,1012.1
2018-12-15T03:41:24.482Z,1012.1
2018-12-15T03:42:25.886Z,1012.1
2018-12-15T03:43:27.287Z,1012.1
2018-12-15T03:44:28.668Z,1012.2
2018-12-15T03:45:30.067Z,1012.2
2018-12-15T03:46:31.451Z,1012.1
2018-12-15T03:47:32.846Z,1012.1
2018-12-15T03:48:34.257Z,1012.1
2018-12-15T03:49:35.643Z,1012.2
2018-12-15T03:50:37.041Z,1012.1
2018-12-15T03:51:38.576Z,1012.1
2018-12-15T03:52:39.988Z,1012.1
2018-12-15T03:53:41.400Z,1012.2
2018-12-15T03:54:42.872Z,1012.2
2018-12-15T03:55:44.396Z,1012.1
2018-12-15T03:56:45.826Z,1012.2
2018-12-15T03:57:47.370Z,1012.1
2018-12-15T03:58:48.813Z,1012.1
2018-12-15T03:59:50.183Z,1012.1
2018-12-15T04:00:51.618Z,1012.1
2018-12-15T04:01:53.092Z,1012.1
2018-12-15T04:02:54.477Z,1012.1
2018-12-15T04:03:55.873Z,1012.1
2018-12-15T04:04:57.263Z,1012.1
2018-12-15T04:05:58.665Z,1012.1
2018-12-15T04:07:00.024Z,1012.1
2018-12-15T04:08:01.562Z,1012.1
2018-12-15T04:09:02.784Z,1012.0
2018-12-15T04:10:04.182Z,1012.0
2018-12-15T04:11:05.674Z,1012.1
2018-12-15T04:12:07.099Z,1012.0
2018-12-15T04:13:08.646Z,1012.1
2018-12-15T04:14:10.250Z,1012.2
2018-12-15T04:15:11.855Z,1012.2
2018-12-15T04:16:13.319Z,1012.1
2018-12-15T04:17:14.742Z,1012.1
2018-12-15T04:18:16.182Z,1012.2
2018-12-15T04:19:17.608Z,1012.1
2018-12-15T04:20:19.096Z,1012.2
2018-12-15T04:21:20.549Z,1012.1
2018-12-15T04:22:21.984Z,1012.1
2018-12-15T04:23:23.516Z,1012.1
2018-12-15T04:24:24.963Z,1012.1
2018-12-15T04:25:26.425Z,1012.1
2018-12-15T04:26:27.927Z,1012.1
2018-12-15T04:27:29.463Z,1012.1
2018-12-15T04:28:31.069Z,1012.2
2018-12-15T04:29:32.626Z,1012.2
2018-12-15T04:30:34.227Z,1012.2
2018-12-15T04:31:35.650Z,1012.2
2018-12-15T04:32:37.176Z,1012.1
2018-12-15T04:33:38.613Z,1012.1
2018-12-15T04:34:40.079Z,1012.1
2018-12-15T04:35:41.468Z,1012.1
2018-12-15T04:36:42.848Z,1012.1
2018-12-15T04:37:44.252Z,1012.2
2018-12-15T04:38:45.667Z,1012.2
2018-12-15T04:39:47.067Z,1012.2
2018-12-15T04:40:48.506Z,1012.2
2018-12-15T04:41:49.943Z,1012.2
2018-12-15T04:42:51.405Z,1012.1
2018-12-15T04:43:52.862Z,1012.3
2018-12-15T04:44:54.287Z,1012.2
2018-12-15T04:45:55.800Z,1012.2
2018-12-15T04:46:57.191Z,1012.2
2018-12-15T04:47:58.589Z,1012.2
2018-12-15T04:48:59.970Z,1012.2
2018-12-15T04:50:01.374Z,1012.2
2018-12-15T04:51:02.754Z,1012.2
2018-12-15T04:52:04.187Z,1012.2
2018-12-15T04:53:05.581Z,1012.2
2018-12-15T04:54:07.244Z,1012.2
2018-12-15T04:55:08.728Z,1012.2
2018-12-15T04:56:10.214Z,1012.2
2018-12-15T04:57:11.670Z,1012.2
2018-12-15T04:58:13.218Z,1012.2
2018-12-15T04:59:14.707Z,1012.2
2018-12-15T05:00:16.253Z,1012.2
2018-12-15T05:01:17.717Z,1012.2
2018-12-15T05:02:19.151Z,1012.2
2018-12-15T05:03:20.631Z,1012.2
2018-12-15T05:04:22.031Z,1012.2
2018-12-15T05:05:23.416Z,1012.2
2018-12-15T05:06:24.833Z,1012.2
2018-12-15T05:07:26.288Z,1012.1
2018-12-15T05:08:27.725Z,1012.1
2018-12-15T05:09:29.152Z,1012.1
2018-12-15T05:10:30.644Z,1012.1
2018-12-15T05:11:32.140Z,1012.2
2018-12-15T05:12:33.560Z,1012.1
2018-12-15T05:13:34.991Z,1012.2
2018-12-15T05:14:36.416Z,1012.1
2018-12-15T05:15:37.863Z,1012.1
2018-12-15T05:16:39.378Z,1012.1
2018-12-15T05:17:40.848Z,1012.1
2018-12-15T05:18:42.429Z,1012.0
2018-12-15T05:19:44.021Z,1012.0
2018-12-15T05:20:45.530Z,1012.1
2018-12-15T05:21:46.925Z,1012.1
2018-12-15T05:22:48.372Z,1012.0
2018-12-15T05:23:49.786Z,1012.0
2018-12-15T05:24:51.213Z,1012.0
2018-12-15T05:25:52.659Z,1012.0
2018-12-15T05:26:54.044Z,1012.0
2018-12-15T05:27:55.441Z,1012.0
2018-12-15T05:28:56.866Z,1012.0
2018-12-15T05:29:58.244Z,1011.9
2018-12-15T05:30:59.653Z,1011.9
2018-12-15T05:32:01.262Z,1012.0
2018-12-15T05:33:02.867Z,1012.0
2018-12-15T05:34:04.524Z,1011.9
2018-12-15T05:35:05.988Z,1012.0
2018-12-15T05:36:07.662Z,1011.9
2018-12-15T05:37:09.249Z,1011.9
2018-12-15T05:38:10.880Z,1011.9
2018-12-15T05:39:12.373Z,1011.9
2018-12-15T05:40:13.781Z,1011.9
2018-12-15T05:41:15.244Z,1011.9
2018-12-15T05:42:16.662Z,1011.9
2018-12-15T05:43:18.058Z,1011.9
2018-12-15T05:44:19.488Z,1011.9
2018-12-15T05:45:20.983Z,1011.9
2018-12-15T05:46:22.471Z,1011.9
2018-12-15T05:47:24.024Z,1012.0
2018-12-15T05:48:25.563Z,1011.9
2018-12-15T05:49:26.898Z,1012.0
2018-12-15T05:50:28.326Z,1012.0
2018-12-15T05:51:29.842Z,1012.0
2018-12-15T05:52:31.217Z,1012.0
2018-12-15T05:53:32.689Z,1012.0
2018-12-15T05:54:34.090Z,1012.0
2018-12-15T05:55:35.552Z,1012.0
2018-12-15T05:56:37.200Z,1012.0
2018-12-15T05:57:38.639Z,1012.1
2018-12-15T05:58:40.467Z,1012.0
2018-12-15T05:59:41.873Z,1012.1
2018-12-15T06:00:43.319Z,1012.1
2018-12-15T06:01:45.163Z,1012.1
2018-12-15T06:02:46.488Z,1012.1
2018-12-15T06:03:48.007Z,1012.0
2018-12-15T06:04:49.470Z,1012.1
2018-12-15T06:05:50.880Z,1012.0
2018-12-15T06:06:52.382Z,1012.0
2018-12-15T06:07:53.834Z,1012.0
2018-12-15T06:08:55.306Z,1012.0
2018-12-15T06:09:56.735Z,1012.0
2018-12-15T06:10:58.203Z,1012.1
2018-12-15T06:11:59.697Z,1012.1
2018-12-15T06:13:01.195Z,1012.1
2018-12-15T06:14:04.121Z,1012.1
2018-12-15T06:15:04.299Z,1012.1
2018-12-15T06:16:05.869Z,1012.1
2018-12-15T06:17:07.400Z,1012.1
2018-12-15T06:18:08.917Z,1012.1
2018-12-15T06:19:10.362Z,1012.1
2018-12-15T06:20:11.811Z,1012.1
2018-12-15T06:21:13.232Z,1012.2
2018-12-15T06:22:14.665Z,1012.2
2018-12-15T06:23:16.191Z,1012.2
2018-12-15T06:24:17.648Z,1012.2
2018-12-15T06:25:19.090Z,1012.2
2018-12-15T06:26:20.589Z,1012.2
2018-12-15T06:27:21.991Z,1012.2
2018-12-15T06:28:23.396Z,1012.2
2018-12-15T06:29:24.791Z,1012.2
2018-12-15T06:30:26.221Z,1012.2
2018-12-15T06:31:27.601Z,1012.2
2018-12-15T06:32:29.041Z,1012.2
2018-12-15T06:33:30.435Z,1012.2
2018-12-15T06:34:31.817Z,1012.2
2018-12-15T06:35:33.202Z,1012.2
2018-12-15T06:36:34.588Z,1012.2
2018-12-15T06:37:35.973Z,1012.1
2018-12-15T06:38:37.355Z,1012.1
2018-12-15T06:39:38.759Z,1012.1
2018-12-15T06:40:40.130Z,1012.1
2018-12-15T06:41:41.554Z,1012.1
2018-12-15T06:42:42.936Z,1012.0
2018-12-15T06:43:44.318Z,1012.1
2018-12-15T06:44:45.722Z,1012.2
2018-12-15T06:45:47.105Z,1012.1
2018-12-15T06:46:48.515Z,1012.1
2018-12-15T06:47:49.915Z,1012.1
2018-12-15T06:48:51.301Z,1012.1
2018-12-15T06:49:52.682Z,1012.1
2018-12-15T06:50:54.069Z,1012.0
2018-12-15T06:51:55.452Z,1012.0
2018-12-15T06:52:56.824Z,1012.0
2018-12-15T06:53:58.203Z,1012.1
2018-12-15T06:54:59.625Z,1012.0
2018-12-15T06:56:01.001Z,1012.0
2018-12-15T06:57:02.391Z,1012.0
2018-12-15T06:58:03.783Z,1012.0
2018-12-15T06:59:05.159Z,1012.0
2018-12-15T07:00:06.537Z,1011.9
2018-12-15T07:01:07.913Z,1011.9
2018-12-15T07:02:09.307Z,1011.9
2018-12-15T07:03:10.695Z,1012.0
2018-12-15T07:04:12.107Z,1012.0
2018-12-15T07:05:13.488Z,1012.0
2018-12-15T07:06:14.879Z,1011.9
2018-12-15T07:07:16.265Z,1012.0
2018-12-15T07:08:17.650Z,1011.9
2018-12-15T07:09:19.035Z,1011.9
2018-12-15T07:10:20.414Z,1011.9
2018-12-15T07:11:21.797Z,1011.9
2018-12-15T07:12:23.187Z,1011.9
2018-12-15T07:13:24.620Z,1011.9
2018-12-15T07:14:26.000Z,1011.9
2018-12-15T07:15:27.383Z,1011.9
2018-12-15T07:16:28.766Z,1011.8
2018-12-15T07:17:30.155Z,1011.9
2018-12-15T07:18:31.556Z,1011.9
2018-12-15T07:19:32.941Z,1011.9
2018-12-15T07:20:34.327Z,1011.9
2018-12-15T07:21:35.718Z,1011.8
2018-12-15T07:22:37.128Z,1011.8
2018-12-15T07:23:38.519Z,1011.8
2018-12-15T07:24:39.907Z,1011.8
2018-12-15T07:25:41.308Z,1011.9
2018-12-15T07:26:42.734Z,1011.9
2018-12-15T07:27:44.094Z,1011.9
2018-12-15T07:28:45.470Z,1011.9
2018-12-15T07:29:46.869Z,1011.9
2018-12-15T07:30:48.268Z,1011.9
2018-12-15T07:31:49.747Z,1011.9
2018-12-15T07:32:51.162Z,1011.9
2018-12-15T07:33:52.549Z,1012.0
2018-12-15T07:34:53.937Z,1012.0
2018-12-15T07:35:55.329Z,1012.0
2018-12-15T07:36:56.738Z,1012.0
2018-12-15T07:37:58.114Z,1012.0
2018-12-15T07:38:59.484Z,1012.0
2018-12-15T07:40:00.883Z,1012.0
2018-12-15T07:41:02.283Z,1012.0
2018-12-15T07:42:03.692Z,1012.0
2018-12-15T07:43:05.076Z,1012.1
2018-12-15T07:44:06.509Z,1012.0
2018-12-15T07:45:07.920Z,1012.0
2018-12-15T07:46:09.329Z,1012.1
2018-12-15T07:47:10.712Z,1012.1
2018-12-15T07:48:12.088Z,1012.1
2018-12-15T07:49:13.489Z,1012.1
2018-12-15T07:50:14.879Z,1012.2
2018-12-15T07:51:16.268Z,1012.1
2018-12-15T07:52:17.655Z,1012.2
2018-12-15T07:53:19.069Z,1012.2
2018-12-15T07:54:20.458Z,1012.2
2018-12-15T07:55:21.833Z,1012.1
2018-12-15T07:56:23.233Z,1012.1
2018-12-15T07:57:24.636Z,1012.1
2018-12-15T07:58:26.032Z,1012.1
2018-12-15T07:59:27.431Z,1012.1
2018-12-15T08:00:28.821Z,1012.1
2018-12-15T08:01:30.193Z,1012.2
2018-12-15T08:02:31.570Z,1012.2
2018-12-15T08:03:32.978Z,1012.2
2018-12-15T08:04:34.367Z,1012.1
2018-12-15T08:05:35.756Z,1012.1
2018-12-15T08:06:37.133Z,1012.0
2018-12-15T08:07:38.548Z,1012.1
2018-12-15T08:08:39.969Z,1012.0
2018-12-15T08:09:41.359Z,1012.1
2018-12-15T08:10:42.828Z,1012.0
2018-12-15T08:11:44.212Z,1012.1
2018-12-15T08:12:45.623Z,1012.1
2018-12-15T08:13:47.033Z,1012.1
2018-12-15T08:14:48.432Z,1012.1
2018-12-15T08:15:49.820Z,1012.1
2018-12-15T08:16:51.208Z,1012.1
2018-12-15T08:17:52.581Z,1012.2
2018-12-15T08:18:58.029Z,1012.1
2018-12-15T08:19:55.334Z,1012.1
2018-12-15T08:20:56.729Z,1012.1
2018-12-15T08:21:58.167Z,1012.2
2018-12-15T08:22:59.554Z,1012.2
2018-12-15T08:24:00.938Z,1012.2
2018-12-15T08:25:02.327Z,1012.2
2018-12-15T08:26:03.723Z,1012.1
2018-12-15T08:27:05.113Z,1012.2
2018-12-15T08:28:06.497Z,1012.1
2018-12-15T08:29:07.874Z,1012.2
2018-12-15T08:30:09.895Z,1012.2
2018-12-15T08:31:11.371Z,1012.2
2018-12-15T08:32:12.810Z,1012.2
2018-12-15T08:33:14.347Z,1012.2
2018-12-15T08:34:15.723Z,1012.1
2018-12-15T08:35:17.248Z,1012.2
2018-12-15T08:36:18.703Z,1012.1
2018-12-15T08:37:20.141Z,1012.1
2018-12-15T08:38:21.638Z,1012.2
2018-12-15T08:39:23.013Z,1012.2
2018-12-15T08:40:24.405Z,1012.2
2018-12-15T08:41:25.905Z,1012.2
2018-12-15T08:42:27.382Z,1012.2
2018-12-15T08:43:28.827Z,1012.2
2018-12-15T08:44:30.413Z,1012.2
2018-12-15T08:45:32.004Z,1012.1
2018-12-15T08:46:33.555Z,1012.2
2018-12-15T08:47:35.169Z,1012.2
2018-12-15T08:48:36.722Z,1012.2
2018-12-15T08:49:38.037Z,1012.1
2018-12-15T08:50:39.432Z,1012.1
2018-12-15T08:51:40.825Z,1012.2
2018-12-15T08:52:42.234Z,1012.2
2018-12-15T08:53:43.657Z,1012.3
2018-12-15T08:54:45.053Z,1012.2
2018-12-15T08:55:46.443Z,1012.2
2018-12-15T08:56:47.935Z,1012.2
2018-12-15T08:57:49.441Z,1012.2
2018-12-15T08:58:50.932Z,1012.2
2018-12-15T08:59:52.592Z,1012.2
2018-12-15T09:00:54.063Z,1012.2
2018-12-15T09:01:55.577Z,1012.2
2018-12-15T09:02:56.998Z,1012.2
2018-12-15T09:03:58.533Z,1012.2
2018-12-15T09:05:00.056Z,1012.3
2018-12-15T09:06:01.635Z,1012.2
2018-12-15T09:07:03.366Z,1012.2
2018-12-15T09:08:04.892Z,1012.2
2018-12-15T09:09:06.321Z,1012.2
2018-12-15T09:10:07.826Z,1012.2
2018-12-15T09:11:09.341Z,1012.3
2018-12-15T09:12:10.832Z,1012.3
2018-12-15T09:13:12.319Z,1012.3
2018-12-15T09:14:13.895Z,1012.2
2018-12-15T09:15:15.360Z,1012.3
2018-12-15T09:16:16.912Z,1012.3
2018-12-15T09:17:19.149Z,1012.3
2018-12-15T09:18:20.665Z,1012.3
2018-12-15T09:19:22.133Z,1012.3
2018-12-15T09:20:23.573Z,1012.3
2018-12-15T09:21:25.081Z,1012.3
2018-12-15T09:22:26.630Z,1012.3
2018-12-15T09:23:28.134Z,1012.3
2018-12-15T09:24:29.612Z,1012.3
2018-12-15T09:25:31.022Z,1012.3
2018-12-15T09:26:32.475Z,1012.3
2018-12-15T09:27:33.888Z,1012.3
2018-12-15T09:28:35.305Z,1012.4
2018-12-15T09:29:36.698Z,1012.3
2018-12-15T09:30:38.156Z,1012.3
2018-12-15T09:31:39.603Z,1012.3
2018-12-15T09:32:41.105Z,1012.3
2018-12-15T09:33:42.528Z,1012.4
2018-12-15T09:34:43.962Z,1012.4
2018-12-15T09:35:45.497Z,1012.3
2018-12-15T09:36:46.957Z,1012.3
2018-12-15T09:37:48.491Z,1012.3
2018-12-15T09:38:49.911Z,1012.4
2018-12-15T09:39:51.385Z,1012.4
2018-12-15T09:40:52.834Z,1012.4
2018-12-15T09:41:54.305Z,1012.4
2018-12-15T09:42:55.755Z,1012.3
2018-12-15T09:43:57.183Z,1012.3
2018-12-15T09:44:58.596Z,1012.3
2018-12-15T09:46:00.051Z,1012.3
2018-12-15T09:47:01.471Z,1012.3
2018-12-15T09:48:02.934Z,1012.3
2018-12-15T09:49:04.360Z,1012.3
2018-12-15T09:50:05.746Z,1012.3
2018-12-15T09:51:07.209Z,1012.2
2018-12-15T09:52:08.671Z,1012.2
2018-12-15T09:53:10.142Z,1012.2
2018-12-15T09:54:12.511Z,1012.2
2018-12-15T09:55:12.946Z,1012.2
2018-12-15T09:56:14.386Z,1012.2
2018-12-15T09:57:15.875Z,1012.2
2018-12-15T09:58:17.305Z,1012.2
2018-12-15T09:59:18.708Z,1012.2
2018-12-15T10:00:20.177Z,1012.2
2018-12-15T10:01:21.555Z,1012.1
2018-12-15T10:02:22.977Z,1012.2
2018-12-15T10:03:24.467Z,1012.2
2018-12-15T10:04:25.776Z,1012.2
2018-12-15T10:05:27.172Z,1012.2
2018-12-15T10:06:28.696Z,1012.2
2018-12-15T10:07:30.123Z,1012.2
2018-12-15T10:08:31.571Z,1012.2
2018-12-15T10:09:33.005Z,1012.2
2018-12-15T10:10:34.429Z,1012.2
2018-12-15T10:11:35.927Z,1012.1
2018-12-15T10:12:37.358Z,1012.1
2018-12-15T10:13:38.768Z,1012.1
2018-12-15T10:14:40.209Z,1012.0
2018-12-15T10:15:42.654Z,1012.0
2018-12-15T10:16:44.050Z,1012.0
2018-12-15T10:17:45.513Z,1012.0
2018-12-15T10:18:46.999Z,1012.0
2018-12-15T10:19:48.479Z,1012.0
2018-12-15T10:20:49.976Z,1012.0
2018-12-15T10:21:51.439Z,1012.0
2018-12-15T10:22:52.900Z,1011.9
2018-12-15T10:23:54.434Z,1011.9
2018-12-15T10:24:55.809Z,1011.8
2018-12-15T10:25:57.232Z,1011.9
2018-12-15T10:26:58.724Z,1011.8
2018-12-15T10:28:00.197Z,1011.8
2018-12-15T10:29:01.644Z,1011.8
2018-12-15T10:30:03.110Z,1011.7
2018-12-15T10:31:04.487Z,1011.7
2018-12-15T10:32:05.978Z,1011.6
2018-12-15T10:33:07.467Z,1011.6
2018-12-15T10:34:08.881Z,1011.6
2018-12-15T10:35:10.310Z,1011.5
2018-12-15T10:36:11.823Z,1011.5
2018-12-15T10:37:14.140Z,1011.6
2018-12-15T10:38:15.545Z,1011.6
2018-12-15T10:39:16.959Z,1011.6
2018-12-15T10:40:18.345Z,1011.6
2018-12-15T10:41:19.737Z,1011.6
2018-12-15T10:42:21.133Z,1011.6
2018-12-15T10:43:22.518Z,1011.6
2018-12-15T10:44:23.974Z,1011.5
2018-12-15T10:45:25.359Z,1011.4
2018-12-15T10:46:26.743Z,1011.4
2018-12-15T10:47:28.124Z,1011.3
2018-12-15T10:48:29.514Z,1011.3
2018-12-15T10:49:30.952Z,1011.3
2018-12-15T10:50:32.317Z,1011.3
2018-12-15T10:51:33.702Z,1011.3
2018-12-15T10:52:35.085Z,1011.3
2018-12-15T10:53:36.473Z,1011.3
2018-12-15T10:54:37.872Z,1011.2
2018-12-15T10:55:39.302Z,1011.2
2018-12-15T10:56:40.683Z,1011.1
2018-12-15T10:57:42.059Z,1011.2
2018-12-15T10:58:43.454Z,1011.2
2018-12-15T10:59:44.856Z,1011.2
2018-12-15T11:00:46.267Z,1011.2
2018-12-15T11:01:47.668Z,1011.2
2018-12-15T11:02:49.044Z,1011.2
2018-12-15T11:03:50.467Z,1011.1
2018-12-15T11:04:51.867Z,1011.1
2018-12-15T11:05:53.251Z,1011.1
2018-12-15T11:06:54.634Z,1011.2
2018-12-15T11:07:56.017Z,1011.2
2018-12-15T11:08:57.431Z,1011.2
2018-12-15T11:09:58.790Z,1011.2
2018-12-15T11:11:00.188Z,1011.2
2018-12-15T11:12:01.568Z,1011.1
2018-12-15T11:13:02.950Z,1011.1
2018-12-15T11:14:04.351Z,1011.0
2018-12-15T11:15:05.732Z,1011.1
2018-12-15T11:16:07.117Z,1011.0
2018-12-15T11:17:08.550Z,1011.1
2018-12-15T11:18:09.925Z,1010.9
2018-12-15T11:19:11.306Z,1010.9
2018-12-15T11:20:12.696Z,1010.9
2018-12-15T11:21:14.077Z,1011.0
2018-12-15T11:22:15.460Z,1011.0
2018-12-15T11:23:16.846Z,1011.0
2018-12-15T11:24:18.321Z,1011.0
2018-12-15T11:25:19.684Z,1011.0
2018-12-15T11:26:21.103Z,1010.9
2018-12-15T11:27:22.539Z,1010.9
2018-12-15T11:28:23.941Z,1010.8
2018-12-15T11:29:25.319Z,1010.8
2018-12-15T11:30:26.737Z,1010.9
2018-12-15T11:31:28.122Z,1010.8
2018-12-15T11:32:29.511Z,1010.9
2018-12-15T11:33:30.907Z,1010.8
2018-12-15T11:34:32.295Z,1010.8
2018-12-15T11:35:33.676Z,1010.8
2018-12-15T11:36:35.070Z,1010.7
2018-12-15T11:37:36.452Z,1010.7
2018-12-15T11:38:37.848Z,1010.7
2018-12-15T11:39:39.226Z,1010.7
2018-12-15T11:40:40.609Z,1010.6
2018-12-15T11:41:41.990Z,1010.6
2018-12-15T11:42:43.372Z,1010.5
2018-12-15T11:43:44.773Z,1010.5
2018-12-15T11:44:46.164Z,1010.5
2018-12-15T11:45:47.548Z,1010.6
2018-12-15T11:46:48.944Z,1010.6
2018-12-15T11:47:50.325Z,1010.5
2018-12-15T11:48:51.716Z,1010.5
2018-12-15T11:49:53.091Z,1010.4
2018-12-15T11:50:54.494Z,1010.4
2018-12-15T11:51:55.896Z,1010.5
2018-12-15T11:52:57.287Z,1010.4
2018-12-15T11:53:58.713Z,1010.3
2018-12-15T11:55:00.176Z,1010.3
2018-12-15T11:56:01.736Z,1010.2
2018-12-15T11:57:03.171Z,1010.2
2018-12-15T11:58:04.629Z,1010.2
2018-12-15T11:59:06.037Z,1010.2
2018-12-15T12:00:07.420Z,1010.2
2018-12-15T12:01:08.873Z,1010.2
2018-12-15T12:02:10.302Z,1010.2
2018-12-15T12:03:51.371Z,1010.2
2018-12-15T12:04:52.799Z,1010.2
2018-12-15T12:06:15.598Z,1010.2
2018-12-15T12:07:17.089Z,1010.1
2018-12-15T12:08:18.472Z,1010.2
2018-12-15T12:09:19.878Z,1010.2
2018-12-15T12:10:21.327Z,1010.2
2018-12-15T12:11:22.706Z,1010.3
2018-12-15T12:12:24.135Z,1010.2
2018-12-15T12:13:25.619Z,1010.2
2018-12-15T12:14:27.177Z,1010.3
2018-12-15T12:15:28.704Z,1010.2
2018-12-15T12:16:30.186Z,1010.3
2018-12-15T12:17:31.678Z,1010.2
2018-12-15T12:18:33.050Z,1010.3
2018-12-15T12:19:34.456Z,1010.2
2018-12-15T12:20:35.912Z,1010.3
2018-12-15T12:21:37.320Z,1010.3
2018-12-15T12:22:38.795Z,1010.2
2018-12-15T12:23:40.192Z,1010.2
2018-12-15T12:24:41.583Z,1010.2
2018-12-15T12:25:43.024Z,1010.1
2018-12-15T12:26:44.447Z,1010.1
2018-12-15T12:27:45.876Z,1010.1
2018-12-15T12:28:47.259Z,1010.1
2018-12-15T12:29:48.652Z,1010.0
2018-12-15T12:30:50.035Z,1010.1
2018-12-15T12:31:51.448Z,1010.0
2018-12-15T12:32:52.835Z,1010.0
2018-12-15T12:33:54.218Z,1010.0
2018-12-15T12:34:55.622Z,1010.0
2018-12-15T12:35:57.060Z,1009.9
2018-12-15T12:36:58.483Z,1010.0
2018-12-15T12:37:59.877Z,1010.0
2018-12-15T12:39:01.260Z,1009.9
2018-12-15T12:40:02.641Z,1009.9
2018-12-15T12:41:04.022Z,1009.9
2018-12-15T12:42:05.677Z,1009.9
2018-12-15T12:43:07.084Z,1010.0
2018-12-15T12:44:08.555Z,1010.0
2018-12-15T12:45:09.968Z,1009.9
2018-12-15T12:46:11.415Z,1010.0
2018-12-15T12:47:12.846Z,1009.9